UME weather

Umeå Airport
Umeå, Västerbottens län, Sweden

Public forecast

Using degrees Celsius for public forecast. Weather courtesy of forecast.io.

METAR (pilot weather report)

Retrieved 2019/09/15 08:20 UTC (33 minutes ago):

ESNU 150820Z 12011KT 9999 -RA BKN007CB OVC013 09/08 Q0987

TAF (pilot weather forecast)

Forecast is more than 12 hours old.

Retrieved 2019/01/04 00:39 UTC (8 months ago):

TAF TAF ESNU 042330Z 0500/0524 34002KT CAVOK PROB40 0500/0503 BKN008